Pagrindinis puslapis
METAR-TAF:

METAR-TAF

Oro uostai :

Ščecinas, Lenkija

platuma: 53-35N, ilguma: 014-54E, Aukštis: 1 m

Dabartinis oras

Ataskaita buvo paskelbta 11 minutes, ne 10:30 UTC
Vėjas 9 kt iš Vakarų
Temperatūra 13°C
Drėgmė 72%
Slėgis 1026 hPa
Matomumas 10 km arba daugiau
Mažai debesys ne aukštis 2000 ft
Išsisklaidę debesys ne aukštis 2400 ft
Apsiniaukę ne aukštis 4600 ft

METAR: EPSC 201030Z 27009KT 9999 FEW020 SCT024 OVC046 13/08 Q1026

Laikas: 12:41 (10:41 UTC)

Prognozė

Ataskaita buvo paskelbta 5 valandos ir 11 minutes, ne 05:30 UTC
Prognozė galioja nuo 20 metu 06 UTC su 21 metu 06 UTC
Vėjas 6 kt iš Vakarų/Pietvakarių
Matomumas 10 km arba daugiau
Su prošvaistėmis ne aukštis 2500 ft
Tikimybė 40% :
Laikinai
nuo 20 metu 12 UTC su 20 metu 24 UTC
Su prošvaistėmis ne aukštis 1200 ft
lietus
Tikimybė 40%
nuo 21 metu 00 UTC su 21 metu 06 UTC
Matomumas: 3000 m
Su prošvaistėmis ne aukštis 500 ft
rūkana

TAF: EPSC 200530Z 2006/2106 25006KT 9999 BKN025 PROB40 TEMPO 2012/2024 -RA BKN012 PROB40 2100/2106 3000 BR BKN005

Orai ataskaitas ir orų prognozės (METAR, TAF).

turimą stotys yra geltonos ir raudonos taškus žemėlapyje.

Perkelti pele per norėdami pamatyti stoties vardą.

Tada spustelėkite, norėdami matyti oro stebėjimo ir prognozės.

Norėdami pakeisti žemėlapį: spustelėkite ant žalios mygtukų su juodo kryžiaus žemyn,; žalią mygtuką su brūkšneliu, jei norite nutolinti; arba žalių rodyklių gretimoms žemėlapius.


METAR-TAF: